Time;durP1;ratioP1;P1;durP2;ratioP2;P2;SDS_P1;SDS_P2;PMS_P1;PMS_P2;Temp;Humidity;BMP_temperature;BMP_pressure;BME280_temperature;BME280_humidity;BME280_pressure;Samples;Min_cycle;Max_cycle;Signal;HPM_P1;HPM_P2
2023/06/10 00:00:06;;;;;;;;;8.50;4.75;;;;;22.15;47.98;101538.47;5049473;28;8814;-65
2023/06/10 00:02:39;;;;;;;;;4.25;4.25;;;;;22.09;47.93;101540.31;5047468;28;8834;-65
2023/06/10 00:05:07;;;;;;;;;3.00;3.00;;;;;22.07;48.85;101541.63;5045929;28;8846;-66
2023/06/10 00:07:37;;;;;;;;;7.00;5.50;;;;;22.01;49.85;101532.53;5049171;28;8846;-66
2023/06/10 00:10:06;;;;;;;;;8.00;5.00;;;;;21.91;51.14;101532.38;5048982;28;8848;-66
2023/06/10 00:12:36;;;;;;;;;5.00;5.00;;;;;21.85;51.79;101544.34;5048347;28;8834;-66
2023/06/10 00:15:07;;;;;;;;;5.25;5.25;;;;;21.83;52.26;101538.28;5037568;28;8836;-66
2023/06/10 00:17:34;;;;;;;;;5.00;5.00;;;;;21.79;51.63;101539.88;5046322;28;8868;-66
2023/06/10 00:20:04;;;;;;;;;4.75;4.75;;;;;21.78;52.03;101538.22;5048904;28;8818;-65
2023/06/10 00:22:32;;;;;;;;;3.75;3.75;;;;;21.84;52.08;101538.03;5029570;28;8845;-66
2023/06/10 00:24:58;;;;;;;;;3.50;3.25;;;;;21.86;51.60;101537.78;5043391;28;8873;-66
2023/06/10 00:27:31;;;;;;;;;4.50;4.50;;;;;21.76;50.99;101535.75;5048424;28;8830;-65
2023/06/10 00:29:58;;;;;;;;;4.00;3.00;;;;;21.75;51.15;101535.97;5045335;28;8876;-65
2023/06/10 00:32:25;;;;;;;;;3.00;3.00;;;;;21.77;51.02;101542.88;5025576;28;8986;-65
2023/06/10 00:34:51;;;;;;;;;5.00;4.00;;;;;21.76;49.86;101527.50;5043179;28;8842;-65
2023/06/10 00:37:18;;;;;;;;;4.75;4.25;;;;;21.74;49.49;101537.88;5044331;28;8839;-66
2023/06/10 00:39:44;;;;;;;;;4.75;4.50;;;;;21.66;48.46;101535.56;5042958;28;8838;-64
2023/06/10 00:42:11;;;;;;;;;5.00;4.75;;;;;21.57;48.21;101540.66;5048741;28;8829;-66
2023/06/10 00:44:38;;;;;;;;;5.25;4.75;;;;;21.57;48.81;101537.91;5047095;28;8846;-65
2023/06/10 00:47:05;;;;;;;;;4.50;4.00;;;;;21.63;48.66;101541.56;5041993;28;9521;-65
2023/06/10 00:49:33;;;;;;;;;5.50;5.50;;;;;21.63;47.99;101544.28;5046052;28;8817;-65
2023/06/10 00:52:01;;;;;;;;;5.75;3.50;;;;;21.60;46.94;101542.06;5050244;28;9595;-65
2023/06/10 00:54:28;;;;;;;;;4.25;3.25;;;;;21.54;47.30;101543.88;5049571;28;8851;-65
2023/06/10 00:56:55;;;;;;;;;3.25;3.25;;;;;21.51;47.69;101547.13;5046111;28;8853;-65
2023/06/10 00:59:21;;;;;;;;;7.00;6.00;;;;;21.54;47.78;101543.06;5045889;28;8838;-65
2023/06/10 01:01:48;;;;;;;;;4.25;4.25;;;;;21.53;48.69;101542.25;5039799;28;8838;-65
2023/06/10 01:04:19;;;;;;;;;4.50;4.00;;;;;21.50;49.89;101530.94;5046003;28;8834;-65
2023/06/10 01:07:09;;;;;;;;;5.75;5.75;;;;;21.40;51.80;101548.06;5048252;28;8844;-65
2023/06/10 01:09:59;;;;;;;;;5.25;2.75;;;;;21.31;52.36;101544.88;5045060;28;8850;-66
2023/06/10 01:12:51;;;;;;;;;6.75;4.00;;;;;21.24;52.70;101539.56;5031855;28;8964;-66
2023/06/10 01:15:21;;;;;;;;;4.50;4.50;;;;;21.23;53.01;101546.13;5044228;28;8953;-65
2023/06/10 01:17:54;;;;;;;;;3.00;2.75;;;;;21.24;53.15;101547.78;5042662;28;8846;-65
2023/06/10 01:20:22;;;;;;;;;4.50;3.50;;;;;21.23;53.01;101548.84;5049698;28;8822;-66
2023/06/10 01:22:49;;;;;;;;;3.00;3.00;;;;;21.23;53.32;101548.84;5044344;28;8833;-66
2023/06/10 01:25:18;;;;;;;;;2.00;1.50;;;;;21.26;53.33;101549.41;5034913;28;8846;-66
2023/06/10 01:27:49;;;;;;;;;9.00;6.75;;;;;21.22;53.09;101547.16;5048307;28;8826;-66
2023/06/10 01:30:22;;;;;;;;;2.00;2.00;;;;;21.19;53.07;101547.69;5042130;28;9543;-67
2023/06/10 01:32:51;;;;;;;;;2.00;2.00;;;;;21.16;53.14;101550.09;5033563;28;8834;-66
2023/06/10 01:35:24;;;;;;;;;3.75;3.75;;;;;21.12;52.85;101546.19;5044611;28;8803;-66
2023/06/10 01:37:54;;;;;;;;;7.00;4.00;;;;;21.06;52.91;101549.91;5048220;28;8854;-70
2023/06/10 01:40:23;;;;;;;;;6.75;6.00;;;;;20.94;52.87;101544.47;5047622;28;8900;-66
2023/06/10 01:42:52;;;;;;;;;4.00;4.00;;;;;20.91;53.49;101545.81;5044479;28;8848;-66
2023/06/10 01:45:18;;;;;;;;;5.25;5.25;;;;;20.91;53.99;101543.09;5045793;28;8841;-66
2023/06/10 01:47:45;;;;;;;;;4.75;4.00;;;;;20.93;53.31;101548.31;5046557;28;8806;-66
2023/06/10 01:50:12;;;;;;;;;6.00;4.00;;;;;20.91;53.51;101548.56;5049728;28;8837;-67
2023/06/10 01:52:38;;;;;;;;;7.25;5.50;;;;;20.91;53.54;101553.22;5046554;28;8835;-66
2023/06/10 01:55:05;;;;;;;;;7.50;7.50;;;;;20.89;53.68;101552.63;5051507;28;8907;-67
2023/06/10 01:57:32;;;;;;;;;5.00;5.00;;;;;20.87;53.32;101555.59;5048073;28;8836;-66
2023/06/10 01:59:59;;;;;;;;;9.00;6.50;;;;;20.86;53.25;101558.56;5051521;28;8829;-66
2023/06/10 02:02:25;;;;;;;;;4.50;4.00;;;;;20.86;53.91;101556.66;5052439;28;8848;-66
2023/06/10 02:04:52;;;;;;;;;4.00;4.00;;;;;20.87;53.91;101560.25;5042964;28;8845;-65
2023/06/10 02:07:20;;;;;;;;;3.00;3.00;;;;;20.84;54.06;101558.81;5044559;28;8867;-66
2023/06/10 02:09:47;;;;;;;;;5.50;4.00;;;;;20.79;54.30;101558.75;5044295;28;8838;-66
2023/06/10 02:12:14;;;;;;;;;6.50;6.25;;;;;20.76;54.48;101564.69;5047733;28;8960;-66
2023/06/10 02:14:43;;;;;;;;;2.00;2.00;;;;;20.76;54.73;101561.13;5047440;28;8846;-66
2023/06/10 02:17:12;;;;;;;;;7.75;6.50;;;;;20.69;54.68;101559.34;5043808;28;8860;-67
2023/06/10 02:19:42;;;;;;;;;8.00;7.00;;;;;20.59;54.49;101559.16;5049666;28;9599;-66
2023/06/10 02:22:09;;;;;;;;;6.75;6.00;;;;;20.53;55.19;101560.13;5034617;28;8830;-66
2023/06/10 02:24:37;;;;;;;;;6.25;6.00;;;;;20.52;55.33;101565.84;5027464;28;8963;-67
2023/06/10 02:27:06;;;;;;;;;6.75;5.75;;;;;20.42;55.23;101563.72;5050882;28;8861;-66
2023/06/10 02:29:35;;;;;;;;;6.25;5.75;;;;;20.38;55.94;101563.38;5048519;28;8806;-66
2023/06/10 02:32:02;;;;;;;;;6.00;6.00;;;;;20.34;55.84;101569.56;5044599;28;8818;-66
2023/06/10 02:34:29;;;;;;;;;4.50;4.50;;;;;20.34;56.36;101566.84;5032117;28;8826;-66
2023/06/10 02:36:57;;;;;;;;;6.00;5.75;;;;;20.33;56.23;101567.88;5047246;28;8825;-66
2023/06/10 02:39:25;;;;;;;;;11.00;5.25;;;;;20.33;56.41;101567.88;5019962;28;8986;-66
2023/06/10 02:41:51;;;;;;;;;4.50;4.50;;;;;20.32;56.43;101566.22;5051896;28;8830;-66
2023/06/10 02:44:20;;;;;;;;;7.75;5.00;;;;;20.25;56.51;101571.81;5048236;28;8822;-66
2023/06/10 02:46:47;;;;;;;;;8.75;6.75;;;;;20.25;56.22;101571.81;5030785;28;8850;-66
2023/06/10 02:49:13;;;;;;;;;7.00;7.00;;;;;20.19;56.34;101565.44;5049676;28;8881;-66
2023/06/10 02:51:41;;;;;;;;;8.50;5.00;;;;;20.18;56.47;101571.97;5044317;28;8836;-66
2023/06/10 02:54:08;;;;;;;;;6.00;6.00;;;;;20.20;56.96;101569.81;5049936;28;8850;-66
2023/06/10 02:56:34;;;;;;;;;9.00;7.00;;;;;20.21;56.79;101568.72;5028793;28;10005;-66
2023/06/10 02:59:03;;;;;;;;;3.50;3.50;;;;;20.22;56.58;101570.41;5031798;28;8822;-66
2023/06/10 03:01:31;;;;;;;;;7.25;6.00;;;;;20.14;56.35;101568.06;5029536;28;8846;-66
2023/06/10 03:04:05;;;;;;;;;7.00;6.00;;;;;20.08;56.45;101566.28;5048189;28;8830;-66
2023/06/10 03:06:33;;;;;;;;;8.50;7.75;;;;;20.06;56.89;101568.44;5031013;28;8980;-65
2023/06/10 03:09:10;;;;;;;;;6.50;6.50;;;;;20.06;57.09;101564.88;5046549;28;8814;-65
2023/06/10 03:11:38;;;;;;;;;10.50;7.50;;;;;20.05;56.21;101572.22;5040162;28;8835;-65
2023/06/10 03:14:06;;;;;;;;;6.75;6.75;;;;;20.02;57.03;101569.97;5030565;28;8834;-65
2023/06/10 03:16:32;;;;;;;;;4.25;4.25;;;;;20.08;57.02;101570.91;5044885;28;8853;-65
2023/06/10 03:19:00;;;;;;;;;4.25;3.75;;;;;20.11;56.94;101574.00;5050379;28;8844;-65
2023/06/10 03:21:26;;;;;;;;;9.50;8.50;;;;;20.11;56.68;101574.00;5041246;28;8851;-66
2023/06/10 03:23:55;;;;;;;;;7.50;3.50;;;;;20.14;56.51;101567.22;5047321;28;8842;-66
2023/06/10 03:26:22;;;;;;;;;7.00;5.25;;;;;20.14;56.41;101573.53;5052610;28;8838;-66
2023/06/10 03:28:49;;;;;;;;;7.00;6.25;;;;;20.16;55.87;101576.84;5049414;28;8901;-66
2023/06/10 03:31:18;;;;;;;;;6.75;6.00;;;;;20.16;56.05;101576.00;5033590;28;8848;-65
2023/06/10 03:33:44;;;;;;;;;7.00;7.00;;;;;20.07;55.27;101570.09;5042940;28;8942;-65
2023/06/10 03:36:11;;;;;;;;;5.00;5.00;;;;;20.05;55.44;101572.22;5045292;28;8886;-66
2023/06/10 03:38:38;;;;;;;;;7.50;6.00;;;;;20.04;55.58;101570.56;5050651;28;8842;-66
2023/06/10 03:41:06;;;;;;;;;10.25;10.00;;;;;20.09;55.76;101572.56;5046161;28;8833;-66
2023/06/10 03:43:34;;;;;;;;;7.00;7.00;;;;;20.04;55.19;101577.94;5052753;28;8871;-66
2023/06/10 03:46:01;;;;;;;;;8.00;7.00;;;;;19.96;54.91;101581.84;5045834;28;8833;-65
2023/06/10 03:48:27;;;;;;;;;9.00;7.50;;;;;19.94;54.64;101579.38;5030735;28;8862;-66
2023/06/10 03:50:54;;;;;;;;;12.75;8.75;;;;;19.90;54.54;101583.66;5052322;28;9560;-65
2023/06/10 03:53:21;;;;;;;;;9.75;9.00;;;;;19.86;54.32;101581.63;5049561;28;8850;-66
2023/06/10 03:55:48;;;;;;;;;8.25;7.00;;;;;19.84;54.47;101579.13;5052010;28;8826;-66
2023/06/10 03:58:18;;;;;;;;;6.50;6.25;;;;;19.91;54.56;101581.75;5042740;28;8821;-66
2023/06/10 04:00:45;;;;;;;;;8.75;6.75;;;;;19.97;54.16;101581.63;5065666;28;8832;-66
2023/06/10 04:03:15;;;;;;;;;7.50;7.50;;;;;19.96;54.06;101590.88;5047937;28;9504;-66
2023/06/10 04:05:45;;;;;;;;;6.25;6.25;;;;;20.00;53.72;101593.97;5029058;28;8845;-66
2023/06/10 04:08:12;;;;;;;;;8.25;8.00;;;;;19.99;53.77;101587.69;5050952;28;9540;-66
2023/06/10 04:10:38;;;;;;;;;8.00;7.75;;;;;19.98;52.84;101586.03;5041013;28;8959;-66
2023/06/10 04:13:05;;;;;;;;;6.50;6.50;;;;;19.98;53.64;101593.38;5047074;28;8830;-65
2023/06/10 04:15:38;;;;;;;;;5.50;5.50;;;;;20.05;53.72;101598.72;5047415;28;9646;-65
2023/06/10 04:18:08;;;;;;;;;7.00;7.00;;;;;20.05;53.42;101595.97;5048011;28;8830;-65
2023/06/10 04:20:36;;;;;;;;;7.50;7.50;;;;;19.93;53.29;101591.38;5046691;28;8824;-65
2023/06/10 04:23:02;;;;;;;;;7.25;7.25;;;;;19.87;53.87;101594.22;5043433;28;8878;-66
2023/06/10 04:25:30;;;;;;;;;3.50;1.25;;;;;19.88;54.18;101596.69;5047742;28;8830;-66
2023/06/10 04:27:56;;;;;;;;;5.50;5.50;;;;;19.91;54.03;101600.88;5044810;28;9605;-66
2023/06/10 04:30:24;;;;;;;;;7.75;7.75;;;;;19.87;53.71;101589.59;5032453;28;8806;-66
2023/06/10 04:32:51;;;;;;;;;5.75;5.75;;;;;19.79;54.25;101597.31;5045608;28;8834;-66
2023/06/10 04:35:18;;;;;;;;;11.25;9.00;;;;;19.81;54.62;101603.34;5044171;28;8826;-65
2023/06/10 04:37:46;;;;;;;;;7.25;7.25;;;;;19.86;54.43;101600.75;5038726;28;8914;-65
2023/06/10 04:40:13;;;;;;;;;6.50;6.00;;;;;19.93;54.74;101602.31;5047051;28;8822;-66
2023/06/10 04:42:40;;;;;;;;;6.75;6.75;;;;;19.96;54.66;101603.72;5032117;28;8826;-65
2023/06/10 04:45:08;;;;;;;;;8.25;6.75;;;;;19.95;54.90;101611.09;5030281;28;8880;-66
2023/06/10 04:47:35;;;;;;;;;8.25;7.75;;;;;19.99;54.77;101612.28;5043063;28;8871;-66
2023/06/10 04:50:03;;;;;;;;;9.50;9.00;;;;;19.97;54.03;101610.84;5058828;28;8849;-65
2023/06/10 04:52:29;;;;;;;;;11.50;7.00;;;;;19.93;54.54;101607.78;5046002;28;9556;-66
2023/06/10 04:54:58;;;;;;;;;7.75;7.00;;;;;19.93;54.97;101612.38;5047986;28;8840;-66
2023/06/10 04:57:25;;;;;;;;;11.25;11.25;;;;;19.90;54.38;101607.41;5044940;28;9602;-65
2023/06/10 04:59:52;;;;;;;;;7.50;7.50;;;;;19.82;54.61;101616.78;5037307;28;8903;-65
2023/06/10 05:02:19;;;;;;;;;11.25;8.75;;;;;19.80;54.86;101610.72;5045505;28;8825;-67
2023/06/10 05:04:46;;;;;;;;;7.50;7.00;;;;;19.86;55.18;101615.25;5044583;28;8826;-67
2023/06/10 05:07:12;;;;;;;;;7.00;6.00;;;;;19.95;55.27;101613.00;5048735;28;8883;-65
2023/06/10 05:09:39;;;;;;;;;7.50;6.00;;;;;20.04;55.47;101619.75;5035100;28;8868;-67
2023/06/10 05:12:06;;;;;;;;;9.50;7.50;;;;;20.06;55.06;101620.34;5046624;28;8838;-67
2023/06/10 05:14:32;;;;;;;;;11.75;10.50;;;;;19.97;54.04;101617.16;5037385;28;9660;-67
2023/06/10 05:16:59;;;;;;;;;10.75;10.75;;;;;19.87;54.58;101621.53;5030850;28;8832;-66
2023/06/10 05:19:27;;;;;;;;;9.00;8.25;;;;;19.90;55.17;101621.91;5036899;28;8848;-67
2023/06/10 05:21:53;;;;;;;;;11.75;10.75;;;;;19.91;54.48;101623.56;5043368;28;8861;-66
2023/06/10 05:24:20;;;;;;;;;11.00;10.50;;;;;19.90;54.29;101623.81;5051456;28;8853;-67
2023/06/10 05:26:48;;;;;;;;;14.50;11.75;;;;;19.89;54.35;101620.25;5054405;28;8838;-67
2023/06/10 05:29:15;;;;;;;;;9.25;8.50;;;;;19.95;54.65;101627.47;5052642;28;8988;-66
2023/06/10 05:31:42;;;;;;;;;11.25;10.50;;;;;20.07;53.64;101619.28;5052621;28;8826;-67
2023/06/10 05:34:08;;;;;;;;;12.25;9.00;;;;;20.18;54.18;101617.63;5053349;28;8840;-67
2023/06/10 05:36:35;;;;;;;;;13.25;10.00;;;;;20.29;53.36;101624.13;5053508;28;8853;-66
2023/06/10 05:39:01;;;;;;;;;8.75;8.00;;;;;20.40;53.29;101626.84;5053152;28;8822;-66
2023/06/10 05:41:28;;;;;;;;;8.25;8.25;;;;;20.59;52.72;101618.53;5053187;28;8830;-69
2023/06/10 05:43:55;;;;;;;;;12.00;12.00;;;;;20.67;52.42;101623.63;5053251;28;8846;-68
2023/06/10 05:46:21;;;;;;;;;2.00;2.00;;;;;20.80;52.85;101619.75;5051729;28;8861;-68
2023/06/10 05:48:48;;;;;;;;;10.50;10.50;;;;;20.88;52.12;101628.41;5053121;28;8920;-67
2023/06/10 05:51:14;;;;;;;;;7.75;7.75;;;;;20.93;52.30;101633.16;5052846;28;8846;-67
2023/06/10 05:53:41;;;;;;;;;10.00;9.75;;;;;20.92;51.97;101626.84;5052886;28;8868;-68
2023/06/10 05:56:07;;;;;;;;;11.00;9.25;;;;;20.82;51.90;101628.53;5052893;28;8838;-67
2023/06/10 05:58:34;;;;;;;;;16.00;10.00;;;;;20.69;52.49;101633.22;5052744;28;9720;-67
2023/06/10 06:01:01;;;;;;;;;10.00;8.75;;;;;20.65;52.24;101629.31;5052248;28;8899;-67
2023/06/10 06:03:28;;;;;;;;;8.00;8.00;;;;;20.61;52.58;101625.41;5052874;28;8835;-67
2023/06/10 06:05:55;;;;;;;;;11.50;10.50;;;;;20.66;52.78;101628.25;5052363;28;9026;-67
2023/06/10 06:08:22;;;;;;;;;10.00;10.00;;;;;20.69;52.93;101635.13;5052695;28;8864;-67
2023/06/10 06:10:48;;;;;;;;;8.50;7.75;;;;;20.77;53.05;101620.25;5052545;28;8944;-67
2023/06/10 06:13:15;;;;;;;;;9.75;8.50;;;;;20.83;53.06;101630.22;5051269;28;8857;-68
2023/06/10 06:15:41;;;;;;;;;11.75;10.00;;;;;20.83;52.47;101632.97;5052416;28;9667;-68
2023/06/10 06:18:08;;;;;;;;;11.67;11.67;;;;;20.76;52.29;101626.78;5051379;28;9564;-67
2023/06/10 06:20:34;;;;;;;;;10.50;9.75;;;;;20.72;52.54;101635.47;5052290;28;8846;-68
2023/06/10 06:23:01;;;;;;;;;10.00;10.00;;;;;20.74;52.75;101640.69;5053065;28;8826;-68
2023/06/10 06:25:28;;;;;;;;;11.00;10.25;;;;;20.69;53.08;101627.75;5035482;28;8881;-68
2023/06/10 06:27:54;;;;;;;;;12.50;10.25;;;;;20.66;52.26;101630.13;5052423;28;8934;-69
2023/06/10 06:30:21;;;;;;;;;13.75;12.75;;;;;20.62;52.05;101628.97;5052620;28;8903;-67
2023/06/10 06:32:47;;;;;;;;;11.50;9.75;;;;;20.62;52.64;101627.09;5050776;28;8837;-67
2023/06/10 06:35:14;;;;;;;;;12.00;10.25;;;;;20.66;52.75;101636.47;5052117;28;8826;-68
2023/06/10 06:37:43;;;;;;;;;13.50;11.00;;;;;20.70;52.33;101625.84;5035197;28;8856;-67
2023/06/10 06:40:21;;;;;;;;;10.75;9.50;;;;;20.77;52.78;101633.94;5052739;28;9572;-67
2023/06/10 06:42:47;;;;;;;;;11.75;8.50;;;;;20.81;52.13;101632.38;5051626;28;8856;-69
2023/06/10 06:45:37;;;;;;;;;9.75;9.75;;;;;20.82;52.49;101626.63;5051796;28;8818;-69
2023/06/10 06:48:05;;;;;;;;;9.00;7.25;;;;;20.88;52.59;101635.78;5052331;28;8838;-68
2023/06/10 06:50:31;;;;;;;;;6.75;6.75;;;;;20.94;52.79;101626.59;5051770;28;8837;-68
2023/06/10 06:52:58;;;;;;;;;11.25;10.50;;;;;21.01;53.79;101627.28;5051807;28;8834;-68
2023/06/10 06:55:24;;;;;;;;;13.25;10.75;;;;;21.03;54.32;101627.88;5051715;28;8868;-68
2023/06/10 06:57:51;;;;;;;;;10.00;10.00;;;;;21.06;54.64;101630.13;5051792;28;8837;-68
2023/06/10 07:00:18;;;;;;;;;13.25;11.25;;;;;21.12;54.64;101631.06;5051508;28;8821;-68
2023/06/10 07:02:44;;;;;;;;;12.00;10.50;;;;;21.11;54.53;101632.97;5051523;28;8841;-67
2023/06/10 07:05:11;;;;;;;;;14.00;13.50;;;;;21.10;53.95;101635.94;5051196;28;9575;-68
2023/06/10 07:07:38;;;;;;;;;13.50;12.00;;;;;21.08;54.10;101638.94;5049868;28;8861;-68
2023/06/10 07:10:05;;;;;;;;;9.25;8.00;;;;;21.13;54.27;101633.53;5051574;28;8853;-68
2023/06/10 07:12:31;;;;;;;;;10.00;8.50;;;;;21.19;53.09;101635.31;5051168;28;8902;-67
2023/06/10 07:14:58;;;;;;;;;9.25;9.25;;;;;21.23;52.74;101633.75;5050014;28;8898;-68
2023/06/10 07:17:26;;;;;;;;;10.00;9.25;;;;;21.24;53.18;101635.41;5049839;28;8873;-67
2023/06/10 07:19:53;;;;;;;;;9.25;9.25;;;;;21.24;52.91;101631.84;5051329;28;8826;-68
2023/06/10 07:22:19;;;;;;;;;12.00;11.00;;;;;21.24;52.55;101635.41;5049535;28;8834;-68
2023/06/10 07:24:46;;;;;;;;;10.75;10.50;;;;;21.35;53.00;101630.97;5050901;28;8946;-67
2023/06/10 07:27:12;;;;;;;;;9.25;9.25;;;;;21.38;52.72;101635.94;5049581;28;8872;-67
2023/06/10 07:29:39;;;;;;;;;10.75;10.75;;;;;21.42;52.03;101639.00;5033052;28;8878;-68
2023/06/10 07:32:06;;;;;;;;;9.00;9.00;;;;;21.47;52.03;101637.22;5050987;28;8833;-68
2023/06/10 07:34:32;;;;;;;;;15.00;13.00;;;;;21.48;52.08;101633.38;5050612;28;8814;-67
2023/06/10 07:36:59;;;;;;;;;11.25;11.25;;;;;21.51;52.72;101637.53;5051067;28;8830;-68
2023/06/10 07:39:25;;;;;;;;;11.25;9.50;;;;;21.56;53.10;101637.63;5050678;28;8841;-67
2023/06/10 07:41:53;;;;;;;;;10.75;7.75;;;;;21.59;53.55;101636.28;5050650;28;9600;-67
2023/06/10 07:44:20;;;;;;;;;12.00;11.00;;;;;21.66;53.75;101637.78;5049141;28;8875;-67
2023/06/10 07:46:46;;;;;;;;;10.50;9.75;;;;;21.65;53.69;101638.03;5050399;28;8907;-66
2023/06/10 07:49:13;;;;;;;;;14.50;13.00;;;;;21.65;54.24;101644.34;5050213;28;8834;-67
2023/06/10 07:51:40;;;;;;;;;11.25;9.50;;;;;21.69;54.25;101645.50;5050558;28;9000;-67
2023/06/10 07:54:07;;;;;;;;;10.00;9.50;;;;;21.69;53.92;101639.22;5032481;28;8825;-65
2023/06/10 07:56:33;;;;;;;;;15.50;12.50;;;;;21.71;53.60;101648.84;5049352;28;8842;-66
2023/06/10 07:59:00;;;;;;;;;8.00;8.00;;;;;21.77;53.83;101654.41;5050816;28;8840;-67
2023/06/10 08:01:26;;;;;;;;;12.00;12.00;;;;;21.83;53.29;101653.41;5050448;28;9540;-67
2023/06/10 08:03:53;;;;;;;;;9.75;8.25;;;;;21.81;53.22;101658.31;5048905;28;8826;-67
2023/06/10 08:06:19;;;;;;;;;10.25;8.00;;;;;21.83;53.54;101653.41;5049925;28;8860;-67
2023/06/10 08:08:46;;;;;;;;;10.25;10.25;;;;;21.89;53.49;101655.97;5050204;28;8833;-67
2023/06/10 08:11:13;;;;;;;;;12.50;12.50;;;;;21.88;52.54;101653.50;5048912;28;8837;-67
2023/06/10 08:13:40;;;;;;;;;8.00;8.00;;;;;21.86;52.86;101652.91;5048900;28;8817;-67
2023/06/10 08:16:07;;;;;;;;;7.75;7.75;;;;;21.89;52.97;101655.16;5049891;28;8822;-67
2023/06/10 08:18:34;;;;;;;;;10.25;10.25;;;;;21.88;52.73;101648.03;5049944;28;8868;-66
2023/06/10 08:21:00;;;;;;;;;10.75;9.75;;;;;21.94;52.66;101649.75;5049932;28;8849;-67
2023/06/10 08:23:27;;;;;;;;;10.25;8.25;;;;;21.98;52.41;101653.66;5032081;28;8952;-67
2023/06/10 08:25:53;;;;;;;;;9.25;8.50;;;;;22.01;52.30;101653.16;5048541;28;8817;-69
2023/06/10 08:28:22;;;;;;;;;14.00;11.75;;;;;22.00;52.04;101656.97;5049288;28;8925;-68
2023/06/10 08:30:48;;;;;;;;;13.25;12.50;;;;;21.94;51.71;101656.06;5050078;28;8826;-68
2023/06/10 08:33:15;;;;;;;;;12.00;12.00;;;;;21.95;51.77;101654.13;5048815;28;8882;-67
2023/06/10 08:35:41;;;;;;;;;11.50;11.50;;;;;21.96;52.04;101651.16;5049695;28;8825;-68
2023/06/10 08:38:08;;;;;;;;;12.00;11.50;;;;;22.02;51.95;101656.72;5048788;28;8845;-65
2023/06/10 08:40:37;;;;;;;;;10.00;10.00;;;;;22.09;52.26;101658.22;5048715;28;8861;-68
2023/06/10 08:43:10;;;;;;;;;13.75;13.50;;;;;22.08;51.16;101662.03;5048608;28;8842;-67
2023/06/10 08:45:37;;;;;;;;;13.75;13.75;;;;;22.09;51.20;101658.22;5049636;28;9582;-68
2023/06/10 08:48:08;;;;;;;;;12.50;9.50;;;;;22.10;51.76;101665.34;5048566;28;8946;-68
2023/06/10 08:50:38;;;;;;;;;9.75;9.00;;;;;22.11;52.18;101656.03;5048466;28;8821;-67
2023/06/10 08:53:06;;;;;;;;;11.50;10.00;;;;;22.18;52.20;101655.91;5049706;28;8856;-67
2023/06/10 08:55:37;;;;;;;;;9.75;8.75;;;;;22.24;52.58;101656.78;5049487;28;8837;-67
2023/06/10 08:58:04;;;;;;;;;10.25;9.75;;;;;22.31;52.77;101663.75;5049673;28;8936;-66
2023/06/10 09:00:31;;;;;;;;;12.00;12.00;;;;;22.40;52.24;101661.41;5053599;28;8830;-67
2023/06/10 09:03:03;;;;;;;;;13.75;13.00;;;;;22.42;51.47;101671.06;5052232;28;8850;-66
2023/06/10 09:05:36;;;;;;;;;12.75;11.75;;;;;22.44;51.79;101655.19;5053421;28;8837;-68
2023/06/10 09:08:05;;;;;;;;;14.75;11.75;;;;;22.46;52.13;101663.97;5053561;28;8829;-67
2023/06/10 09:10:37;;;;;;;;;8.25;7.75;;;;;22.55;52.67;101660.78;5053842;28;8830;-65
2023/06/10 09:13:05;;;;;;;;;13.00;12.00;;;;;22.63;52.42;101660.34;5052295;28;8829;-65
2023/06/10 09:15:32;;;;;;;;;11.50;9.50;;;;;22.75;51.99;101657.47;5052870;28;8830;-64
2023/06/10 09:17:59;;;;;;;;;8.25;8.00;;;;;22.84;52.58;101658.69;5052288;28;8829;-65
2023/06/10 09:20:26;;;;;;;;;13.50;13.50;;;;;22.83;51.93;101663.34;5053379;28;8905;-66
2023/06/10 09:22:59;;;;;;;;;9.00;9.00;;;;;22.93;51.69;101659.94;5053217;28;8834;-66
2023/06/10 09:25:41;;;;;;;;;14.75;11.25;;;;;22.99;51.32;101669.88;5053186;28;8919;-66
2023/06/10 09:28:15;;;;;;;;;10.75;10.50;;;;;23.03;51.35;101661.97;5053214;28;8833;-66
2023/06/10 09:30:41;;;;;;;;;12.25;11.00;;;;;23.10;51.62;101660.69;5051984;28;8833;-67
2023/06/10 09:33:15;;;;;;;;;12.00;11.00;;;;;23.25;51.68;101660.00;5053600;28;8818;-68
2023/06/10 09:35:50;;;;;;;;;8.25;6.50;;;;;23.32;51.67;101665.28;5051951;28;8837;-69
2023/06/10 09:38:21;;;;;;;;;11.75;10.50;;;;;23.39;51.40;101666.75;5052034;28;8833;-69
2023/06/10 09:40:53;;;;;;;;;12.00;9.50;;;;;23.40;51.07;101664.81;5053247;28;9601;-68
2023/06/10 09:43:20;;;;;;;;;11.25;9.75;;;;;23.43;51.07;101667.06;5053058;28;8830;-67
2023/06/10 09:45:52;;;;;;;;;12.50;10.75;;;;;23.47;50.58;101664.63;5052724;28;9030;-68
2023/06/10 09:48:19;;;;;;;;;10.25;10.00;;;;;23.49;50.84;101665.16;5052869;28;8853;-69
2023/06/10 09:50:46;;;;;;;;;13.25;11.00;;;;;23.54;50.48;101660.56;5052746;28;8854;-68
2023/06/10 09:53:13;;;;;;;;;10.75;9.00;;;;;23.59;50.60;101668.84;5052983;28;8833;-69
2023/06/10 09:55:41;;;;;;;;;8.00;7.00;;;;;23.60;50.56;101666.94;5052498;28;9557;-68
2023/06/10 09:58:07;;;;;;;;;14.50;11.50;;;;;23.56;49.86;101663.03;5051630;28;8822;-68
2023/06/10 10:00:34;;;;;;;;;7.75;6.25;;;;;23.59;50.17;101668.03;5052826;28;9545;-68
2023/06/10 10:03:01;;;;;;;;;11.00;9.50;;;;;23.67;49.88;101664.84;5052645;28;8846;-69
2023/06/10 10:05:29;;;;;;;;;12.00;11.25;;;;;23.67;49.80;101668.41;5052405;28;8822;-68
2023/06/10 10:07:56;;;;;;;;;9.00;8.75;;;;;23.76;49.85;101666.00;5052789;28;8865;-68
2023/06/10 10:10:23;;;;;;;;;10.75;10.75;;;;;23.78;49.42;101666.59;5051915;28;8822;-68
2023/06/10 10:12:56;;;;;;;;;11.75;11.25;;;;;23.85;49.69;101660.84;5034850;28;8830;-68
2023/06/10 10:15:25;;;;;;;;;14.00;12.50;;;;;23.88;49.16;101658.38;5052331;28;8837;-66
2023/06/10 10:18:08;;;;;;;;;12.00;12.00;;;;;23.90;49.40;101658.97;5052383;28;8907;-68
2023/06/10 10:20:46;;;;;;;;;10.25;8.25;;;;;24.00;49.51;101660.97;5052834;28;8850;-65
2023/06/10 10:23:18;;;;;;;;;9.50;9.50;;;;;24.07;49.47;101660.75;5052426;28;8838;-65
2023/06/10 10:25:50;;;;;;;;;10.75;9.75;;;;;24.12;49.59;101656.09;5052255;28;8901;-65
2023/06/10 10:28:19;;;;;;;;;13.50;12.25;;;;;24.12;48.53;101655.25;5052237;28;8845;-65
2023/06/10 10:30:52;;;;;;;;;12.00;11.00;;;;;24.17;48.70;101653.34;5034695;28;8818;-65
2023/06/10 10:33:22;;;;;;;;;9.00;7.50;;;;;24.23;48.73;101650.66;5051013;28;8826;-65
2023/06/10 10:35:50;;;;;;;;;11.00;10.00;;;;;24.23;48.49;101650.66;5051990;28;9556;-66
2023/06/10 10:38:17;;;;;;;;;9.00;8.50;;;;;24.30;48.52;101653.97;5052164;28;8834;-65
2023/06/10 10:40:45;;;;;;;;;10.75;10.75;;;;;24.39;48.33;101649.69;5050621;28;8842;-70
2023/06/10 10:43:13;;;;;;;;;9.25;8.75;;;;;24.48;48.20;101644.50;5051892;28;8864;-67
2023/06/10 10:45:39;;;;;;;;;9.25;8.00;;;;;24.47;47.96;101649.19;5050448;28;8838;-68
2023/06/10 10:48:11;;;;;;;;;9.00;9.00;;;;;24.50;48.02;101645.88;5051893;28;8880;-67
2023/06/10 10:50:38;;;;;;;;;10.00;8.50;;;;;24.51;48.29;101642.03;5050837;28;8956;-67
2023/06/10 10:53:05;;;;;;;;;8.75;8.00;;;;;24.61;48.07;101650.31;5051852;28;8837;-64
2023/06/10 10:55:32;;;;;;;;;11.00;11.00;;;;;24.65;47.23;101640.44;5050346;28;8951;-64
2023/06/10 10:58:02;;;;;;;;;10.00;8.75;;;;;24.67;46.75;101641.00;5050628;28;9613;-66
2023/06/10 11:00:30;;;;;;;;;8.50;8.50;;;;;24.72;46.62;101644.88;5051855;28;8818;-66
2023/06/10 11:03:06;;;;;;;;;11.00;11.00;;;;;24.73;46.23;101636.34;5051987;28;8830;-65
2023/06/10 11:05:48;;;;;;;;;7.50;7.50;;;;;24.79;46.52;101635.25;5050131;28;8873;-66
2023/06/10 11:08:35;;;;;;;;;6.00;5.75;;;;;24.83;46.36;101624.50;5050318;28;8875;-67
2023/06/10 11:11:27;;;;;;;;;12.50;10.00;;;;;24.90;45.51;101631.44;5033558;28;8834;-67
2023/06/10 11:14:01;;;;;;;;;9.25;9.25;;;;;24.89;45.93;101632.53;5049895;28;8868;-67
2023/06/10 11:16:28;;;;;;;;;6.50;6.50;;;;;24.92;45.23;101631.19;5049747;28;8814;-66
2023/06/10 11:18:56;;;;;;;;;7.50;7.50;;;;;24.92;45.07;101631.19;5049893;28;8818;-66
2023/06/10 11:21:25;;;;;;;;;10.25;8.75;;;;;24.95;45.75;101630.59;5050203;28;8834;-67
2023/06/10 11:23:58;;;;;;;;;9.75;9.00;;;;;25.00;45.85;101627.88;5049238;28;8845;-66
2023/06/10 11:26:31;;;;;;;;;9.25;8.75;;;;;25.05;44.82;101622.38;5049961;28;8968;-66
2023/06/10 11:28:58;;;;;;;;;10.00;8.50;;;;;25.09;45.24;101623.53;5050966;28;8864;-66
2023/06/10 11:31:47;;;;;;;;;6.75;6.50;;;;;25.14;45.09;101617.19;5051140;28;8832;-67